Latest Weather Observations for Flinders Island Airport

IDT60801

Issued at 8:02 pm EST Friday 29 July 2016 (issued every 30 minutes, with the page automatically refreshed every 10 minutes)

About weather observations | Map of weather stations | Latest weather observations for TAS | Other Formats
Station Details ID: 099005 Name: FLINDERS ISLAND AIRPORT Lat: -40.09 Lon: 148.00 Height: 9.0 m
Data from the previous 72 hours. | See also: Recent months at Flinders Island Airport
Date/Time
EST
Temp
°C
App
Temp
°C
Dew
Point
°C
Rel
Hum
%
Delta-T
°C
Wind Press
QNH
hPa
Press
MSL
hPa
Rain since
9am
mm
Dir  Spd
km/h
Gust
km/h
Spd
kts
Gust
kts
29/08:00pm 12.0 2.6 8.8 81 1.6 W 48 57 26 31 1014.6 1014.7 0.6
29/07:30pm 12.1 2.4 8.9 81 1.6 W 50 59 27 32 1014.1 1014.2 0.6
29/07:00pm 12.3 1.3 9.0 80 1.7 W 57 78 31 42 1013.8 1013.9 0.6
29/06:47pm 12.4 2.3 9.1 80 1.7 W 52 70 28 38 1013.5 1013.6 0.6
29/06:30pm 12.5 2.4 9.1 80 1.7 W 52 67 28 36 1013.2 1013.3 0.6
29/06:00pm 12.3 3.4 9.1 81 1.6 W 46 57 25 31 1012.7 1012.8 0.6
29/05:30pm 12.3 1.9 9.1 81 1.6 W 54 70 29 38 1012.7 1012.8 0.6
29/05:15pm 12.5 2.9 9.3 81 1.6 W 50 69 27 37 1012.6 1012.7 0.6
29/05:00pm 12.4 3.1 9.1 80 1.7 W 48 59 26 32 1012.2 1012.3 0.6
29/04:41pm 12.6 2.5 9.1 79 1.8 W 52 70 28 38 1012.2 1012.3 0.6
29/04:30pm 12.6 2.9 8.9 78 1.9 W 50 63 27 34 1012.2 1012.3 0.6
29/04:07pm 12.8 4.4 9.1 78 1.9 W 43 61 23 33 1012.0 1012.1 0.6
29/04:00pm 12.8 4.3 9.1 78 1.9 W 44 59 24 32 1012.0 1012.1 0.6
29/03:30pm 13.1 4.1 9.0 76 2.1 W 46 61 25 33 1012.1 1012.2 0.6
29/03:00pm 13.3 4.8 9.4 77 2.0 W 44 57 24 31 1012.1 1012.2 0.6
29/02:30pm 13.6 5.2 9.8 78 2.0 W 44 59 24 32 1011.9 1012.0 0.6
29/02:00pm 13.4 4.2 9.5 77 2.0 W 48 61 26 33 1011.7 1011.8 0.6
29/01:31pm 13.6 5.3 10.2 80 1.8 W 44 67 24 36 1011.8 1011.9 0.6
29/01:30pm 13.6 5.5 10.2 80 1.8 W 43 57 23 31 1011.8 1011.9 0.6
29/01:00pm 13.4 4.4 10.4 82 1.6 W 48 67 26 36 1012.2 1012.3 0.6
29/12:33pm 12.4 4.3 10.8 90 0.8 W 44 65 24 35 1012.4 1012.5 0.6
29/12:32pm 12.4 4.5 10.8 90 0.8 W 43 59 23 32 1012.4 1012.5 0.6
29/12:30pm 12.5 4.6 10.9 90 0.8 W 43 54 23 29 1012.5 1012.6 0.6
29/12:05pm 12.4 3.6 9.6 83 1.4 W 46 57 25 31 1012.5 1012.6 0.2
29/12:01pm 13.0 4.3 9.8 81 1.6 W 46 57 25 31 1012.5 1012.6 0.0
29/12:00pm 13.0 4.3 9.8 81 1.6 W 46 59 25 32 1012.4 1012.5 0.0
29/11:49am 13.6 5.4 10.4 81 1.7 WNW 44 63 24 34 1012.5 1012.6 0.0
29/11:30am 13.6 5.7 10.8 83 1.5 WNW 43 56 23 30 1012.8 1012.9 0.0
29/11:16am 13.4 7.5 11.1 86 1.2 W 33 56 18 30 1013.0 1013.1 0.0
29/11:00am 12.9 6.6 11.0 88 1.0 W 35 44 19 24 1013.3 1013.4 0.0
29/10:57am 12.7 6.3 10.8 88 1.0 W 35 48 19 26 1013.3 1013.4 0.0
29/10:39am 12.3 5.2 9.5 83 1.4 W 37 50 20 27 1013.6 1013.7 0.0
29/10:30am 12.9 5.9 9.9 82 1.5 W 37 52 20 28 1013.6 1013.7 0.0
29/10:00am 12.7 6.0 9.7 82 1.5 W 35 50 19 27 1013.5 1013.6 0.0
29/09:30am 12.4 4.9 9.6 83 1.4 W 39 50 21 27 1013.6 1013.7 0.0
29/09:00am 12.6 5.0 9.2 80 1.7 W 39 52 21 28 1013.7 1013.8 0.4
29/08:30am 12.3 4.7 9.1 81 1.6 W 39 56 21 30 1013.9 1014.0 0.4
29/08:07am 12.1 4.8 8.9 81 1.6 W 37 56 20 30 1013.9 1014.0 0.4
29/08:00am 12.0 3.9 8.8 81 1.6 W 41 52 22 28 1014.0 1014.1 0.4
29/07:30am 12.1 4.4 8.8 80 1.6 W 39 52 21 28 1013.9 1014.0 0.4
29/07:16am 12.3 3.7 9.0 80 1.7 W 44 63 24 34 1013.7 1013.8 0.4
29/07:00am 12.2 3.9 9.2 82 1.5 W 43 57 23 31 1013.7 1013.8 0.4
29/06:38am 12.1 3.8 9.5 84 1.3 W 43 61 23 33 1013.7 1013.8 0.4
29/06:30am 12.0 3.2 9.4 84 1.3 W 46 61 25 33 1013.6 1013.7 0.4
29/06:25am 12.0 3.8 9.6 85 1.2 W 43 61 23 33 1013.5 1013.6 0.4
29/06:00am 12.1 4.7 9.8 86 1.2 WNW 39 52 21 28 1013.6 1013.7 0.2
29/05:30am 12.2 4.6 9.2 82 1.5 W 39 46 21 25 1013.7 1013.8 0.2
29/05:00am 12.1 5.2 8.8 80 1.6 W 35 41 19 22 1013.8 1013.9 0.2
29/04:30am 11.8 3.7 8.5 80 1.6 W 41 50 22 27 1014.0 1014.1 0.2
29/04:00am 11.9 4.7 9.1 83 1.4 W 37 50 20 27 1013.9 1014.0 0.2
29/03:30am 12.0 4.4 9.2 83 1.4 W 39 52 21 28 1014.2 1014.3 0.2
29/03:00am 11.7 5.5 9.3 85 1.2 W 32 39 17 21 1014.4 1014.5 0.2
29/02:30am 11.0 5.5 9.1 88 0.9 W 28 33 15 18 1014.8 1014.9 0.2
29/02:00am 10.9 4.1 9.2 89 0.8 W 35 46 19 25 1015.1 1015.2 0.2
29/01:49am 10.8 2.9 9.2 90 0.8 W 41 52 22 28 1015.2 1015.3 0.2
29/01:35am 10.9 3.0 9.5 91 0.7 W 41 61 22 33 1015.4 1015.5 0.2
29/01:34am 10.9 3.0 9.5 91 0.7 W 41 54 22 29 1015.4 1015.5 0.2
29/01:32am 10.9 3.0 9.5 91 0.7 W 41 54 22 29 1015.3 1015.4 0.2
29/01:30am 10.8 2.9 9.4 91 0.7 W 41 54 22 29 1015.3 1015.4 0.2
29/01:28am 10.8 2.5 9.4 91 0.7 W 43 54 23 29 1015.2 1015.3 0.2
29/01:16am 11.2 3.7 9.5 89 0.9 W 39 57 21 31 1015.2 1015.3 0.2
29/01:13am 11.5 4.8 9.8 89 0.9 W 35 54 19 29 1015.2 1015.3 0.2
29/01:00am 11.3 5.6 9.7 90 0.8 W 30 37 16 20 1015.3 1015.4 0.2
29/12:30am 10.7 4.3 9.5 92 0.6 W 33 43 18 23 1015.6 1015.7 0.2
29/12:03am 11.1 2.3 9.4 89 0.9 W 46 67 25 36 1015.8 1015.9 0.2
29/12:00am 11.5 3.3 9.6 88 1.0 W 43 67 23 36 1015.9 1016.0 0.2
 
Date/Time
EST
Temp
°C
App
Temp
°C
Dew
Point
°C
Rel
Hum
%
Delta-T
°C
Wind Press
QNH
hPa
Press
MSL
hPa
Rain since
9am
mm
Dir  Spd
km/h
Gust
km/h
Spd
kts
Gust
kts
28/11:58pm 11.8 4.4 10.0 89 0.9 W 39 57 21 31 1015.7 1015.8 0.2
28/11:30pm 11.6 4.9 9.7 88 1.0 W 35 46 19 25 1016.0 1016.1 0.2
28/11:01pm 12.2 5.1 9.6 84 1.3 W 37 59 20 32 1016.2 1016.3 0.2
28/11:00pm 12.2 5.5 9.6 84 1.3 W 35 52 19 28 1016.2 1016.3 0.2
28/10:30pm 12.0 5.7 9.7 86 1.2 W 33 41 18 22 1016.3 1016.4 0.2
28/10:00pm 11.7 5.4 9.6 87 1.1 W 33 44 18 24 1016.6 1016.7 0.2
28/09:30pm 11.1 4.0 9.5 90 0.8 W 37 48 20 26 1016.8 1016.9 0.2
28/09:11pm 11.1 3.6 9.4 89 0.9 W 39 48 21 26 1017.0 1017.1 0.2
28/09:00pm 11.0 2.6 8.9 87 1.0 W 43 57 23 31 1017.1 1017.2 0.2
28/08:53pm 11.4 4.5 8.8 84 1.3 W 35 57 19 31 1017.2 1017.3 0.0
28/08:50pm 11.5 5.1 8.7 83 1.4 W 32 50 17 27 1017.0 1017.1 0.0
28/08:30pm 11.7 4.4 8.6 81 1.5 W 37 48 20 26 1017.0 1017.1 0.0
28/08:00pm 11.1 0.7 7.8 80 1.6 W 52 72 28 39 1017.1 1017.2 0.0
28/07:39pm 12.1 1.7 7.8 75 2.1 W 52 70 28 38 1016.9 1017.0 0.0
28/07:30pm 12.1 2.9 8.0 76 2.0 W 46 57 25 31 1016.9 1017.0 0.0
28/07:00pm 12.0 2.3 7.5 74 2.2 W 48 59 26 32 1016.7 1016.8 0.0
28/06:30pm 11.7 1.3 7.6 76 2.0 W 52 63 28 34 1016.4 1016.5 0.0
28/06:01pm 11.8 2.2 7.9 77 1.9 W 48 67 26 36 1016.2 1016.3 0.0
28/06:00pm 11.8 2.2 7.9 77 1.9 W 48 63 26 34 1016.1 1016.2 0.0
28/05:34pm 11.9 1.3 8.6 80 1.6 W 54 72 29 39 1015.5 1015.6 0.0
28/05:30pm 12.1 1.5 8.6 79 1.7 W 54 67 29 36 1015.5 1015.6 0.0
28/05:20pm 12.2 3.1 8.5 78 1.8 W 46 65 25 35 1015.3 1015.4 0.0
28/05:00pm 12.0 2.6 8.8 81 1.6 W 48 63 26 34 1015.1 1015.2 0.0
28/04:57pm 12.0 2.3 9.0 82 1.5 W 50 63 27 34 1015.0 1015.1 0.0
28/04:47pm 12.1 3.8 9.5 84 1.3 W 43 54 23 29 1014.8 1014.9 0.0
28/04:31pm 12.0 3.5 9.4 84 1.3 W 44 65 24 35 1014.7 1014.8 0.0
28/04:30pm 12.0 3.7 9.4 84 1.3 W 43 59 23 32 1014.7 1014.8 0.0
28/04:00pm 12.4 3.8 8.9 79 1.8 W 44 63 24 34 1014.5 1014.6 0.0
28/03:34pm 12.5 4.1 9.0 79 1.8 W 43 61 23 33 1014.5 1014.6 0.0
28/03:30pm 12.8 4.8 9.1 78 1.9 W 41 54 22 29 1014.4 1014.5 0.0
28/03:00pm 12.7 2.5 8.4 75 2.1 W 52 72 28 39 1014.7 1014.8 0.0
28/02:31pm 13.1 3.4 9.2 77 2.0 W 50 69 27 37 1014.6 1014.7 0.0
28/02:30pm 13.1 3.8 9.2 77 2.0 W 48 61 26 33 1014.6 1014.7 0.0
28/02:03pm 12.9 3.9 9.0 77 2.0 W 46 67 25 36 1014.4 1014.5 0.0
28/02:00pm 13.0 4.1 9.3 78 1.9 W 46 61 25 33 1014.4 1014.5 0.0
28/01:32pm 12.9 4.0 9.2 78 1.9 W 46 67 25 36 1014.5 1014.6 0.0
28/01:30pm 12.8 3.8 8.9 77 2.0 W 46 59 25 32 1014.5 1014.6 0.0
28/01:02pm 12.7 3.6 9.7 82 1.5 W 48 67 26 36 1014.8 1014.9 0.0
28/01:00pm 12.6 3.0 9.6 82 1.5 W 50 67 27 36 1014.8 1014.9 0.0
28/12:32pm 13.2 4.8 9.6 79 1.8 W 44 63 24 34 1014.8 1014.9 0.0
28/12:30pm 13.4 5.2 9.8 79 1.8 W 43 57 23 31 1014.9 1015.0 0.0
28/12:00pm 13.5 4.7 9.7 78 1.9 W 46 76 25 41 1014.9 1015.0 0.0
28/11:30am 13.0 3.4 9.4 79 1.8 W 50 61 27 33 1015.0 1015.1 0.0
28/11:14am 13.3 4.2 9.9 80 1.7 W 48 69 26 37 1015.0 1015.1 0.0
28/11:00am 12.9 4.1 9.5 80 1.7 W 46 61 25 33 1015.1 1015.2 0.0
28/10:36am 12.9 4.1 9.5 80 1.7 W 46 65 25 35 1015.1 1015.2 0.0
28/10:30am 13.0 3.4 9.4 79 1.8 W 50 65 27 35 1015.1 1015.2 0.0
28/10:05am 12.8 4.0 9.6 81 1.6 W 46 65 25 35 1015.1 1015.2 0.0
28/10:00am 12.7 4.4 9.5 81 1.6 W 43 57 23 31 1015.1 1015.2 0.0
28/09:30am 12.4 3.1 9.2 81 1.6 W 48 63 26 34 1014.8 1014.9 0.0
28/09:00am 12.4 4.0 9.8 84 1.3 W 44 59 24 32 1014.8 1014.9 1.6
28/08:30am 11.7 3.0 9.9 89 0.9 W 46 61 25 33 1014.6 1014.7 1.6
28/08:00am 11.6 2.9 10.0 90 0.8 W 46 61 25 33 1014.4 1014.5 1.6
28/07:39am 11.5 2.9 10.2 92 0.7 W 46 65 25 35 1014.5 1014.6 1.6
28/07:30am 11.2 3.5 10.1 93 0.6 W 41 54 22 29 1014.5 1014.6 1.6
28/07:18am 11.0 2.9 9.9 93 0.6 W 43 61 23 33 1014.5 1014.6 1.6
28/07:12am 11.2 2.9 10.0 92 0.6 W 44 61 24 33 1014.4 1014.5 1.6
28/07:10am 11.3 3.2 10.0 92 0.7 W 43 61 23 33 1014.5 1014.6 1.6
28/07:00am 11.2 3.1 10.0 92 0.6 W 43 54 23 29 1014.5 1014.6 1.6
28/06:34am 11.3 3.5 9.7 90 0.8 W 41 61 22 33 1014.4 1014.5 1.2
28/06:30am 11.5 4.1 9.9 90 0.8 W 39 54 21 29 1014.3 1014.4 0.8
28/06:17am 11.7 4.6 9.4 86 1.2 W 37 50 20 27 1014.2 1014.3 0.4
28/06:00am 11.9 4.9 9.8 87 1.1 W 37 56 20 30 1014.1 1014.2 0.2
28/05:44am 11.9 4.9 9.8 87 1.1 W 37 57 20 31 1014.0 1014.1 0.2
28/05:30am 11.7 4.2 9.6 87 1.1 W 39 52 21 28 1013.9 1014.0 0.2
28/05:10am 11.4 3.6 9.7 89 0.9 W 41 52 22 28 1013.6 1013.7 0.2
28/05:00am 11.2 2.9 9.3 88 1.0 W 43 61 23 33 1013.5 1013.6 0.2
28/04:52am 11.6 3.7 9.3 86 1.2 W 41 61 22 33 1013.4 1013.5 0.2
28/04:50am 11.8 4.7 9.4 85 1.2 W 37 57 20 31 1013.5 1013.6 0.0
28/04:30am 11.5 3.1 8.9 84 1.3 W 43 56 23 30 1013.4 1013.5 0.0
28/04:00am 11.8 3.4 8.8 82 1.5 W 43 54 23 29 1013.8 1013.9 0.0
28/03:33am 12.0 4.1 9.2 83 1.4 W 41 54 22 29 1013.7 1013.8 0.0
28/03:30am 11.9 3.9 9.1 83 1.4 W 41 54 22 29 1013.8 1013.9 0.0
28/03:20am 11.9 3.9 9.1 83 1.4 W 41 59 22 32 1013.6 1013.7 0.0
28/03:11am 11.9 4.4 9.3 84 1.3 W 39 59 21 32 1013.6 1013.7 0.0
28/03:00am 11.9 4.0 9.3 84 1.3 W 41 54 22 29 1013.5 1013.6 0.0
28/02:37am 11.6 4.4 9.2 85 1.2 W 37 57 20 31 1013.3 1013.4 0.0
28/02:30am 11.7 4.5 9.3 85 1.2 W 37 46 20 25 1013.3 1013.4 0.0
28/02:00am 11.8 4.2 9.2 84 1.3 W 39 54 21 29 1013.2 1013.3 0.0
28/01:30am 11.8 3.0 9.4 85 1.2 W 46 61 25 33 1013.1 1013.2 0.0
28/01:00am 11.7 2.9 9.4 86 1.2 W 46 63 25 34 1012.7 1012.8 0.0
28/12:44am 11.6 3.7 9.5 87 1.1 W 41 59 22 32 1012.6 1012.7 0.0
28/12:30am 11.4 3.0 9.1 86 1.1 W 43 56 23 30 1012.6 1012.7 0.0
28/12:00am 11.9 2.2 9.1 83 1.4 W 50 63 27 34 1012.6 1012.7 0.0
 
Date/Time
EST
Temp
°C
App
Temp
°C
Dew
Point
°C
Rel
Hum
%
Delta-T
°C
Wind Press
QNH
hPa
Press
MSL
hPa
Rain since
9am
mm
Dir  Spd
km/h
Gust
km/h
Spd
kts
Gust
kts
27/11:30pm 12.0 0.9 8.8 81 1.6 W 57 70 31 38 1012.8 1012.9 0.0
27/11:16pm 12.0 1.9 9.0 82 1.5 W 52 70 28 38 1012.8 1012.9 0.0
27/11:00pm 11.9 3.0 9.3 84 1.3 W 46 59 25 32 1012.7 1012.8 0.0
27/10:35pm 11.7 2.4 9.3 85 1.2 W 48 70 26 38 1012.9 1013.0 0.0
27/10:30pm 11.8 2.6 9.4 85 1.2 W 48 59 26 32 1012.8 1012.9 0.0
27/10:00pm 11.6 1.8 8.6 82 1.5 W 50 69 27 37 1012.9 1013.0 0.0
27/09:40pm 11.6 1.8 8.5 81 1.5 W 50 69 27 37 1012.8 1012.9 0.0
27/09:30pm 11.8 1.6 8.5 80 1.6 W 52 69 28 37 1012.6 1012.7 0.0
27/09:25pm 11.6 1.8 8.5 81 1.5 W 50 69 27 37 1012.5 1012.6 0.0
27/09:00pm 11.4 2.3 8.3 81 1.5 W 46 61 25 33 1012.2 1012.3 0.0
27/08:30pm 11.1 2.2 7.8 80 1.6 W 44 57 24 31 1012.3 1012.4 0.0
27/08:00pm 11.1 1.3 7.0 76 2.0 W 48 70 26 38 1012.2 1012.3 0.0
27/07:30pm 10.7 1.6 6.8 77 1.8 W 44 65 24 35 1012.1 1012.2 0.0
27/07:00pm 10.5 1.0 6.5 76 1.9 W 46 65 25 35 1012.0 1012.1 0.0
27/06:59pm 10.6 0.7 6.4 75 2.0 W 48 67 26 36 1012.0 1012.1 0.0
27/06:30pm 10.6 -0.4 5.2 69 2.5 W 52 69 28 37 1011.5 1011.6 0.0
27/06:24pm 10.8 0.2 5.3 69 2.5 W 50 69 27 37 1011.2 1011.3 0.0
27/06:00pm 10.5 -1.4 5.1 69 2.5 W 57 70 31 38 1011.4 1011.5 0.0
27/05:30pm 10.6 -1.8 4.5 66 2.7 W 59 78 32 42 1010.8 1010.9 0.0
27/05:00pm 10.1 -1.7 4.9 70 2.3 W 56 70 30 38 1010.3 1010.4 0.0
27/04:30pm 9.2 -2.8 4.6 73 2.0 W 57 78 31 42 1010.3 1010.4 0.0
27/04:08pm 10.0 -1.4 5.0 71 2.3 W 54 72 29 39 1010.4 1010.5 0.0
27/04:00pm 9.4 -3.0 4.6 72 2.1 W 59 74 32 40 1010.4 1010.5 0.0
27/03:30pm 10.4 -1.1 4.3 66 2.7 W 54 74 29 40 1009.9 1010.0 0.0
27/03:24pm 10.3 -1.3 4.0 65 2.8 WSW 54 74 29 40 1009.8 1009.9 0.0
27/03:00pm 10.3 -1.3 3.8 64 2.9 WSW 54 63 29 34 1009.6 1009.7 0.0
27/02:30pm 10.8 0.0 4.0 63 3.0 WSW 50 59 27 32 1009.1 1009.2 0.0
27/02:00pm 10.8 0.3 3.4 60 3.2 WSW 48 59 26 32 1008.6 1008.7 0.0
27/01:30pm 10.6 -0.8 2.9 59 3.3 WSW 52 67 28 36 1008.6 1008.7 0.0
27/01:00pm 10.8 -0.1 3.8 62 3.1 WSW 50 61 27 33 1008.5 1008.6 0.0
27/12:30pm 10.6 0.8 3.6 62 3.1 WSW 44 54 24 29 1008.6 1008.7 0.0
27/12:00pm 10.6 1.0 4.3 65 2.8 WSW 44 54 24 29 1008.4 1008.5 0.0
27/11:30am 9.9 1.2 4.1 67 2.6 WSW 39 48 21 26 1008.1 1008.2 0.0
27/11:00am 10.8 1.6 5.3 69 2.5 WSW 43 56 23 30 1007.5 1007.5 0.0
27/10:30am 10.5 1.1 4.6 67 2.6 WSW 43 56 23 30 1007.1 1007.1 0.0
27/10:00am 10.9 1.2 5.7 70 2.4 WSW 46 61 25 33 1006.3 1006.3 0.0
27/09:30am 10.3 0.5 5.1 70 2.4 WSW 46 59 25 32 1005.5 1005.5 0.0
27/09:00am 10.0 1.3 5.8 75 1.9 WSW 41 52 22 28 1004.8 1004.8 6.6
27/08:30am 10.1 1.6 6.8 80 1.6 WSW 41 52 22 28 1003.9 1003.9 6.6
27/08:00am 10.1 4.1 8.5 90 0.8 W 30 41 16 22 1003.3 1003.3 6.6
27/07:30am 10.4 4.0 8.7 89 0.8 W 32 41 17 22 1003.1 1003.1 6.6
27/07:00am 9.9 3.3 8.5 91 0.7 WNW 33 44 18 24 1002.7 1002.7 6.6
27/06:48am 9.8 2.0 8.2 90 0.8 WNW 39 57 21 31 1002.5 1002.5 6.6
27/06:43am 9.8 0.7 8.4 91 0.7 WNW 46 61 25 33 1002.4 1002.4 6.6
27/06:32am 10.3 2.7 9.1 92 0.6 WNW 39 59 21 32 1002.1 1002.1 6.6
27/06:30am 10.3 3.5 9.1 92 0.6 WNW 35 59 19 32 1002.1 1002.1 6.6
27/06:26am 10.2 3.7 8.8 91 0.7 WNW 33 59 18 32 1002.0 1002.0 6.6
27/06:23am 10.2 3.9 8.8 91 0.7 WNW 32 43 17 23 1001.9 1001.9 6.6
27/06:14am 10.0 3.0 8.6 91 0.7 WNW 35 54 19 29 1001.9 1001.9 5.6
27/06:04am 10.1 3.1 8.5 90 0.8 WNW 35 52 19 28 1001.8 1001.8 5.6
27/06:00am 10.0 3.0 8.3 89 0.8 WNW 35 46 19 25 1001.8 1001.8 5.6
27/05:55am 10.1 2.7 8.4 89 0.8 WNW 37 50 20 27 1001.7 1001.7 5.0
27/05:39am 10.0 2.1 7.8 86 1.1 WNW 39 59 21 32 1001.6 1001.6 5.0
27/05:33am 10.1 2.2 7.7 85 1.2 WNW 39 59 21 32 1001.5 1001.5 4.4
27/05:30am 10.1 2.2 7.7 85 1.2 WNW 39 54 21 29 1001.4 1001.4 4.4
27/05:19am 10.1 1.7 7.3 83 1.3 WNW 41 59 22 32 1001.4 1001.4 4.2
27/05:00am 10.3 1.6 7.5 83 1.3 WNW 43 57 23 31 1001.3 1001.3 4.0
27/04:50am 10.1 2.4 7.3 83 1.3 NW 37 56 20 30 1001.4 1001.4 4.0
27/04:34am 9.7 0.8 6.8 82 1.4 NW 43 57 23 31 1001.5 1001.5 4.0
27/04:30am 9.7 0.7 6.6 81 1.4 NW 43 56 23 30 1001.6 1001.6 4.0
27/04:16am 10.1 1.9 6.4 78 1.7 WNW 39 67 21 36 1001.7 1001.7 3.6
27/04:02am 10.5 1.9 6.3 75 2.0 NW 41 59 22 32 1001.6 1001.6 3.4
27/04:00am 10.7 1.7 6.3 74 2.1 NW 43 59 23 32 1001.6 1001.6 3.4
27/03:30am 10.7 1.1 6.1 73 2.1 NW 46 65 25 35 1001.7 1001.7 3.4
27/03:00am 10.3 1.7 6.3 76 1.9 WNW 41 61 22 33 1001.8 1001.8 3.4
27/02:35am 10.0 1.6 5.8 75 1.9 NW 39 57 21 31 1002.0 1002.0 3.4
27/02:30am 10.0 0.8 5.6 74 2.0 NW 43 59 23 32 1002.0 1002.0 3.4
27/02:12am 10.6 1.7 5.2 69 2.5 NW 41 59 22 32 1002.1 1002.1 3.2
27/02:00am 10.8 1.9 4.9 67 2.7 NW 41 54 22 29 1002.2 1002.2 3.2
27/01:30am 10.9 0.9 4.4 64 2.9 NW 46 65 25 35 1002.5 1002.5 3.2
27/01:00am 10.7 2.5 4.8 67 2.7 NW 37 59 20 32 1002.8 1002.8 3.2
27/12:30am 10.4 1.8 4.8 68 2.5 NW 39 57 21 31 1002.9 1002.9 3.2
27/12:03am 10.2 0.9 5.0 70 2.3 NW 43 61 23 33 1003.2 1003.2 3.2
27/12:00am 10.2 0.3 4.8 69 2.4 NW 46 61 25 33 1003.2 1003.2 3.2
 
Date/Time
EST
Temp
°C
App
Temp
°C
Dew
Point
°C
Rel
Hum
%
Delta-T
°C
Wind Press
QNH
hPa
Press
MSL
hPa
Rain since
9am
mm
Dir  Spd
km/h
Gust
km/h
Spd
kts
Gust
kts
26/11:30pm 10.3 1.3 4.7 68 2.5 NW 41 59 22 32 1003.6 1003.6 3.2
26/11:12pm 10.3 1.7 4.9 69 2.4 NW 39 59 21 32 1003.9 1003.9 3.2
26/11:00pm 9.9 0.7 5.3 73 2.1 NW 43 57 23 31 1004.1 1004.1 3.2
26/10:33pm 10.1 1.5 4.7 69 2.4 NW 39 57 21 31 1004.1 1004.1 3.2
26/10:30pm 10.1 1.9 4.7 69 2.4 NW 37 54 20 29 1004.1 1004.1 3.2
26/10:02pm 10.1 2.7 4.9 70 2.3 NW 33 52 18 28 1004.4 1004.4 3.2
26/10:00pm 10.0 2.2 4.8 70 2.3 NW 35 52 19 28 1004.4 1004.4 3.2
26/09:30pm 9.9 2.5 4.9 71 2.2 NW 33 46 18 25 1004.7 1004.7 3.2
26/09:01pm 9.9 0.9 4.5 69 2.4 NW 41 59 22 32 1004.7 1004.7 3.2
26/09:00pm 9.8 0.4 4.6 70 2.3 NW 43 59 23 32 1004.7 1004.7 3.2
26/08:44pm 9.9 1.3 4.9 71 2.2 NW 39 57 21 31 1004.9 1004.9 3.2
26/08:30pm 10.0 2.2 5.0 71 2.3 NW 35 48 19 26 1004.9 1004.9 3.2
26/08:08pm 9.7 2.0 5.3 74 2.0 WNW 35 54 19 29 1005.2 1005.2 3.2

Other Formats:

Comma delimited format used in spreadsheet applications
http://www.bom.gov.au/fwo/IDT60801/IDT60801.94980.axf

JavaScript Object Notation format (JSON) in row-major order
http://www.bom.gov.au/fwo/IDT60801/IDT60801.94980.json